Latest Weather Observations for Moruya Airport

IDN60801

Issued at 11:04 am EDT Friday 30 January 2015 (issued every 30 minutes, with the page automatically refreshed every 10 minutes)

About weather observations | Map of weather stations | Latest weather observations for NSW | Other Formats
Station Details ID: 069148 Name: MORUYA AIRPORT AWS Lat: -35.90 Lon: 150.14 Height: 4.0 m
Data from the previous 72 hours. | See also: Recent months for locations in New South Wales
Date/Time
EDT
Temp
°C
App
Temp
°C
Dew
Point
Rel
Hum
%
Delta-T
°C
Wind Press
QNH
hPa
Press
MSL
hPa
Rain
since 9 am
mm
Dir
 
Spd
km/h
Gust
km/h
Spd
kts
Gust
kts
30/11:00am 17.7 16.1 11.7 68 3.3 WSW 11 19 6 10 1008.0 1007.9 0.0
30/10:30am 16.9 15.8 12.0 73 2.7 WSW 9 13 5 7 1008.3 1008.2 0.0
30/10:00am 15.9 15.1 12.8 82 1.7 W 9 11 5 6 1008.5 1008.4 0.0
30/09:30am 14.9 14.1 12.8 87 1.2 WNW 9 15 5 8 1008.6 1008.5 0.0
30/09:00am 14.1 13.2 12.5 90 0.9 W 9 13 5 7 1008.8 1008.7 0.8
30/08:30am 13.8 12.5 12.5 92 0.7 W 11 13 6 7 1009.0 1008.9 0.8
30/08:00am 13.5 12.5 12.2 92 0.7 W 9 15 5 8 1009.1 1009.0 0.8
30/07:30am 14.1 11.9 12.1 88 1.1 WSW 15 22 8 12 1009.0 1008.9 0.6
30/07:00am 15.4 12.6 10.0 70 2.8 SW 15 22 8 12 1008.8 1008.7 0.0
30/06:30am 14.8 12.7 9.6 71 2.7 WSW 11 17 6 9 1008.7 1008.6 0.0
30/06:00am 13.8 12.1 9.8 77 2.1 SW 9 11 5 6 1008.6 1008.5 0.0
30/05:30am 13.2 11.9 9.8 80 1.7 WSW 7 9 4 5 1008.7 1008.6 0.0
30/05:00am 13.4 11.5 9.1 75 2.2 SW 9 11 5 6 1008.7 1008.6 0.0
30/04:58am 13.4 11.5 9.1 75 2.2 SW 9 11 5 6 1008.7 1008.6 0.0
30/04:39am 13.6 11.7 8.9 73 2.4 WSW 9 13 5 7 1008.8 1008.7 0.0
30/04:30am 13.7 11.3 8.7 72 2.5 WSW 11 13 6 7 1008.9 1008.8 0.0
30/04:00am 13.7 11.3 8.7 72 2.5 WSW 11 15 6 8 1009.0 1008.9 0.0
30/03:30am 14.5 12.0 8.0 65 3.2 WSW 11 20 6 11 1009.2 1009.1 0.0
30/03:00am 14.5 12.0 8.2 66 3.2 WSW 11 17 6 9 1009.6 1009.5 0.0
30/02:30am 14.6 12.2 8.5 67 3.1 WSW 11 15 6 8 1010.0 1009.9 0.0
30/02:00am 14.9 11.7 8.6 66 3.2 SW 15 19 8 10 1010.3 1010.2 0.0
30/01:30am 15.0 12.2 8.7 66 3.2 WSW 13 17 7 9 1010.4 1010.3 0.0
30/01:00am 15.6 12.1 8.6 63 3.6 SW 17 26 9 14 1010.9 1010.8 0.0
30/12:30am 15.5 12.4 8.7 64 3.5 WSW 15 22 8 12 1011.2 1011.1 0.0
30/12:00am 14.8 12.6 9.2 69 2.9 WSW 11 19 6 10 1011.5 1011.4 0.0
 
Date/Time
EDT
Temp
°C
App
Temp
°C
Dew
Point
Rel
Hum
%
Delta-T
°C
Wind Press
QNH
hPa
Press
MSL
hPa
Rain
since 9 am
mm
Dir
 
Spd
km/h
Gust
km/h
Spd
kts
Gust
kts
29/11:30pm 14.6 12.8 9.4 71 2.7 SW 9 13 5 7 1011.8 1011.7 0.0
29/11:00pm 15.2 13.0 9.3 68 3.0 SSW 11 17 6 9 1012.1 1012.0 0.0
29/10:30pm 16.1 12.3 9.8 66 3.3 SW 20 28 11 15 1012.2 1012.1 0.0
29/10:00pm 16.4 12.8 9.8 65 3.5 SSW 19 26 10 14 1012.6 1012.5 0.0
29/09:30pm 16.7 13.4 9.6 63 3.7 SW 17 30 9 16 1012.7 1012.6 0.0
29/09:00pm 16.9 12.7 9.8 63 3.7 SW 22 32 12 17 1012.4 1012.3 0.0
29/08:30pm 16.8 13.9 11.1 69 3.1 SSW 17 28 9 15 1012.5 1012.4 0.0
29/08:00pm 16.9 14.2 11.8 72 2.8 SSW 17 24 9 13 1012.4 1012.3 0.0
29/07:30pm 18.7 14.5 11.0 61 4.2 SSW 24 35 13 19 1012.2 1012.1 0.0
29/07:00pm 19.0 14.8 11.1 60 4.3 SSW 24 37 13 20 1012.1 1012.0 0.0
29/06:30pm 17.3 12.9 12.8 75 2.5 SSW 28 39 15 21 1012.1 1012.0 0.0
29/06:00pm 19.5 15.3 12.5 64 3.9 S 26 39 14 21 1011.6 1011.5 0.0
29/05:30pm 19.2 16.8 14.5 74 2.7 SW 20 32 11 17 1011.8 1011.7 0.0
29/05:03pm 20.8 16.5 13.3 62 4.3 S 28 46 15 25 1011.6 1011.5 0.0
29/05:00pm 20.2 16.3 13.2 64 4.0 S 26 35 14 19 1011.6 1011.5 0.0
29/04:30pm 18.1 13.4 14.8 81 1.9 S 33 52 18 28 1011.9 1011.8 0.0
29/04:12pm 21.1 15.8 12.5 58 4.9 S 32 50 17 27 1011.6 1011.5 0.0
29/04:00pm 22.9 17.3 10.0 44 7.0 SSW 30 44 16 24 1011.5 1011.4 0.0
29/03:30pm 22.7 17.2 10.5 46 6.7 S 30 39 16 21 1011.8 1011.7 0.0
29/03:13pm 22.4 16.7 9.9 45 6.8 SSW 30 52 16 28 1011.9 1011.8 0.0
29/03:00pm 22.5 16.6 10.6 47 6.5 SW 32 46 17 25 1012.0 1011.9 0.0
29/02:30pm 22.1 17.4 10.6 48 6.3 SSW 26 44 14 24 1012.2 1012.1 0.0
29/02:00pm 21.8 16.6 10.3 48 6.3 SSW 28 41 15 22 1012.5 1012.4 0.0
29/01:30pm 21.9 18.3 11.9 53 5.6 SSW 22 32 12 17 1013.0 1012.9 0.0
29/01:00pm 20.5 17.0 12.2 59 4.6 SSW 22 32 12 17 1013.7 1013.6 0.0
29/12:32pm 19.3 14.3 10.8 58 4.6 S 28 46 15 25 1013.7 1013.6 0.0
29/12:30pm 19.9 15.0 11.4 58 4.7 SSW 28 41 15 22 1013.7 1013.6 0.0
29/12:00pm 20.8 15.5 10.0 50 5.8 SSW 28 48 15 26 1013.7 1013.6 0.0
29/11:35am 20.1 14.4 9.7 51 5.6 SW 30 54 16 29 1013.9 1013.8 0.0
29/11:30am 20.6 15.6 11.0 54 5.3 SW 28 41 15 22 1013.9 1013.8 0.0
29/11:00am 20.1 14.9 10.2 53 5.3 SSW 28 41 15 22 1014.1 1014.0 0.0
29/10:30am 20.0 15.1 11.2 57 4.8 SW 28 41 15 22 1014.3 1014.2 0.0
29/10:00am 19.3 14.9 10.3 56 4.8 SW 24 41 13 22 1014.4 1014.3 0.0
29/09:30am 18.4 13.3 10.5 60 4.2 SW 28 39 15 21 1014.4 1014.3 0.0
29/09:00am 17.9 13.6 10.8 63 3.8 SW 24 37 13 20 1014.4 1014.3 5.4
29/08:30am 16.8 12.2 9.7 63 3.7 SSW 24 35 13 19 1014.5 1014.4 5.4
29/08:00am 16.3 12.1 9.7 65 3.4 SW 22 33 12 18 1014.4 1014.3 5.4
29/07:30am 15.6 11.0 9.7 68 3.1 SSW 24 33 13 18 1013.8 1013.7 5.4
29/07:00am 14.6 10.7 9.6 72 2.6 SW 20 28 11 15 1013.9 1013.8 5.4
29/06:30am 12.8 10.4 10.0 83 1.4 WSW 13 19 7 10 1013.9 1013.8 5.4
29/06:00am 12.7 10.5 9.3 80 1.7 W 11 20 6 11 1013.8 1013.7 5.4
29/05:30am 13.5 10.9 9.4 76 2.1 WSW 13 17 7 9 1013.8 1013.7 5.4
29/05:00am 13.5 11.0 9.7 78 1.9 WSW 13 20 7 11 1013.8 1013.7 5.4
29/04:30am 13.5 11.4 9.6 77 2.0 WSW 11 13 6 7 1013.8 1013.7 5.4
29/04:00am 14.0 11.2 10.0 77 2.1 WSW 15 20 8 11 1013.9 1013.8 5.4
29/03:30am 14.6 11.5 10.2 75 2.3 WSW 17 28 9 15 1014.0 1013.9 5.4
29/03:00am 14.6 11.6 10.8 78 2.0 WSW 17 22 9 12 1014.3 1014.2 5.4
29/02:30am 15.0 11.9 11.6 80 1.8 SW 19 28 10 15 1014.6 1014.5 5.4
29/02:00am 14.7 12.8 11.8 83 1.6 WSW 13 19 7 10 1014.7 1014.6 5.4
29/01:30am 14.4 12.4 12.6 89 1.0 SW 15 20 8 11 1015.2 1015.1 5.4
29/01:29am 14.4 12.4 12.6 89 1.0 SW 15 20 8 11 1015.2 1015.1 5.4
29/01:13am 14.6 12.9 12.5 87 1.1 SW 13 19 7 10 1015.5 1015.4 5.4
29/01:00am 14.5 12.9 12.7 89 1.0 SSW 13 19 7 10 1015.8 1015.7 5.4
29/12:30am 14.3 12.2 12.5 89 1.0 SW 15 22 8 12 1015.9 1015.8 5.4
29/12:00am 14.3 12.3 12.7 90 0.9 SW 15 20 8 11 1015.9 1015.8 5.4
 
Date/Time
EDT
Temp
°C
App
Temp
°C
Dew
Point
Rel
Hum
%
Delta-T
°C
Wind Press
QNH
hPa
Press
MSL
hPa
Rain
since 9 am
mm
Dir
 
Spd
km/h
Gust
km/h
Spd
kts
Gust
kts
28/11:30pm 14.5 12.9 12.9 90 0.9 WSW 13 17 7 9 1016.0 1015.9 5.4
28/11:00pm 14.6 12.4 13.3 92 0.7 SW 17 24 9 13 1016.3 1016.2 5.4
28/10:30pm 14.9 12.9 13.9 94 0.6 SW 17 24 9 13 1016.6 1016.5 5.4
28/10:00pm 15.1 12.7 14.3 95 0.5 SW 20 26 11 14 1016.8 1016.7 5.4
28/09:30pm 15.2 13.2 14.9 98 0.2 SW 19 26 10 14 1016.7 1016.6 5.4
28/09:00pm 15.3 14.2 15.3 100 0.0 WSW 15 22 8 12 1016.4 1016.3 5.4
28/08:30pm 15.9 16.2 15.9 100 0.0 SW 9 15 5 8 1016.5 1016.4 5.4
28/08:08pm 16.1 15.7 16.1 100 0.0 SSW 13 15 7 8 1016.2 1016.1 5.4
28/08:00pm 16.1 15.7 16.1 100 0.0 SSW 13 20 7 11 1016.2 1016.1 5.2
28/07:50pm 16.3 15.9 16.3 100 0.0 SSW 13 17 7 9 1016.1 1016.0 4.6
28/07:30pm 16.3 15.5 16.0 98 0.2 SW 15 20 8 11 1016.0 1015.9 3.4
28/07:00pm 17.8 16.8 14.7 82 1.8 WSW 13 20 7 11 1015.6 1015.5 1.8
28/06:30pm 18.6 18.4 14.7 78 2.3 SW 9 13 5 7 1015.5 1015.4 1.8
28/06:00pm 18.4 18.2 14.7 79 2.1 WSW 9 13 5 7 1015.4 1015.3 1.8
28/05:30pm 19.4 18.8 14.6 74 2.8 WSW 11 17 6 9 1015.3 1015.2 1.8
28/05:00pm 19.3 17.2 13.7 70 3.2 S 17 24 9 13 1015.5 1015.4 1.8
28/04:30pm 19.2 16.9 14.7 75 2.6 S 20 28 11 15 1015.7 1015.6 1.8
28/04:00pm 19.3 17.6 13.5 69 3.3 S 15 20 8 11 1015.8 1015.7 1.8
28/03:30pm 18.4 17.1 14.7 79 2.1 SSE 15 20 8 11 1015.9 1015.8 1.8
28/03:13pm 17.6 15.4 17.0 96 0.4 SSE 24 35 13 19 1016.1 1016.0 1.8
28/03:00pm 17.9 15.5 17.3 96 0.4 SSE 26 43 14 23 1016.1 1016.0 1.8
28/02:56pm 18.0 15.5 16.2 89 1.1 SE 24 43 13 23 1016.0 1015.9 1.6
28/02:30pm 21.8 19.5 14.2 62 4.4 SE 19 28 10 15 1015.8 1015.7 0.0
28/02:00pm 21.0 18.9 15.1 69 3.5 SE 20 30 11 16 1015.9 1015.8 0.0
28/01:30pm 20.8 18.9 16.6 77 2.5 SSE 22 32 12 17 1016.2 1016.1 0.0
28/01:00pm 20.6 18.3 15.6 73 3.0 SE 22 30 12 16 1016.1 1016.0 0.0
28/12:30pm 20.4 17.5 15.2 72 3.1 SSE 24 32 13 17 1016.1 1016.0 0.0
28/12:00pm 20.4 17.5 15.0 71 3.2 SSE 24 37 13 20 1016.3 1016.2 0.0
28/11:30am 20.7 18.9 15.9 74 2.9 SE 20 26 11 14 1016.2 1016.1 0.0
28/11:00am 20.6 18.3 15.6 73 3.0 SE 22 33 12 18 1016.3 1016.2 0.0
28/10:30am 20.2 18.1 16.2 78 2.4 SE 22 30 12 16 1016.3 1016.2 0.0
28/10:00am 19.8 17.9 14.2 70 3.2 SSE 17 32 9 17 1016.2 1016.1 0.0
28/09:30am 20.2 18.3 14.1 68 3.5 S 17 30 9 16 1016.1 1016.0 0.0
28/09:00am 19.4 18.5 14.9 75 2.6 SW 13 19 7 10 1016.0 1015.9 0.4
28/08:30am 17.9 17.5 14.0 78 2.2 SSW 9 15 5 8 1015.8 1015.7 0.4
28/08:00am 17.7 15.6 13.6 77 2.3 SSW 17 26 9 14 1015.6 1015.5 0.4
28/07:30am 17.1 15.1 13.8 81 1.9 SW 17 20 9 11 1015.2 1015.1 0.4
28/07:00am 16.6 14.1 13.5 82 1.7 SW 19 24 10 13 1014.8 1014.7 0.4
28/06:30am 16.4 14.3 13.7 84 1.5 SW 17 22 9 12 1014.5 1014.4 0.4
28/06:00am 16.3 14.3 13.8 85 1.4 SW 17 20 9 11 1014.3 1014.2 0.4
28/05:30am 16.6 15.1 14.1 85 1.4 SW 15 20 8 11 1014.3 1014.2 0.4
28/05:00am 16.7 15.6 14.2 85 1.4 SW 13 19 7 10 1014.3 1014.2 0.4
28/04:30am 16.8 15.3 14.3 85 1.4 SW 15 22 8 12 1014.3 1014.2 0.4
28/04:00am 16.7 15.6 14.3 86 1.4 WSW 13 20 7 11 1014.4 1014.3 0.4
28/03:30am 16.8 15.7 14.3 85 1.4 WSW 13 24 7 13 1014.4 1014.3 0.4
28/03:00am 16.9 15.1 14.4 85 1.4 SW 17 22 9 12 1014.5 1014.4 0.4
28/02:30am 16.8 15.1 14.6 87 1.3 SW 17 22 9 12 1014.7 1014.6 0.4
28/02:00am 16.6 14.6 15.0 90 0.9 SW 19 22 10 12 1015.0 1014.9 0.4
28/01:30am 16.7 15.8 14.9 89 1.0 SW 13 19 7 10 1015.3 1015.2 0.4
28/01:00am 16.8 16.0 15.2 90 0.9 SW 13 17 7 9 1015.4 1015.3 0.4
28/12:30am 16.9 17.3 15.4 91 0.9 SW 7 11 4 6 1015.7 1015.6 0.4
28/12:00am 17.3 17.1 15.8 91 0.9 SW 11 15 6 8 1015.8 1015.7 0.4
 
Date/Time
EDT
Temp
°C
App
Temp
°C
Dew
Point
Rel
Hum
%
Delta-T
°C
Wind Press
QNH
hPa
Press
MSL
hPa
Rain
since 9 am
mm
Dir
 
Spd
km/h
Gust
km/h
Spd
kts
Gust
kts
27/11:53pm 17.2 17.1 15.9 92 0.8 SW 11 15 6 8 1015.9 1015.8 0.4
27/11:38pm 17.1 17.0 16.0 93 0.6 SSW 11 17 6 9 1016.0 1015.9 0.4
27/11:30pm 17.1 17.0 16.0 93 0.6 SSW 11 17 6 9 1016.0 1015.9 0.4
27/11:00pm 17.3 16.5 16.2 93 0.7 SSW 15 20 8 11 1016.0 1015.9 0.4
27/10:30pm 17.6 17.2 16.3 92 0.8 SSW 13 20 7 11 1015.9 1015.8 0.4
27/10:00pm 18.0 16.5 16.3 90 1.0 SSW 19 28 10 15 1015.8 1015.7 0.4
27/09:30pm 18.1 17.9 16.6 91 0.9 SSW 13 19 7 10 1015.7 1015.6 0.4
27/09:00pm 18.3 17.3 16.6 90 1.0 S 17 22 9 12 1015.5 1015.4 0.4
27/08:30pm 18.8 17.3 16.4 86 1.4 S 19 24 10 13 1015.2 1015.1 0.4
27/08:00pm 19.0 18.2 15.1 78 2.3 S 13 19 7 10 1015.1 1015.0 0.4
27/07:30pm 19.2 18.2 14.7 75 2.6 SSE 13 20 7 11 1014.7 1014.6 0.4
27/07:00pm 19.1 18.9 15.6 80 2.1 S 11 15 6 8 1014.5 1014.4 0.4
27/06:30pm 19.1 18.9 14.8 76 2.5 S 9 15 5 8 1014.4 1014.3 0.4
27/06:00pm 19.2 17.6 13.8 71 3.1 SSE 15 19 8 10 1014.2 1014.1 0.4
27/05:30pm 19.1 17.4 13.5 70 3.2 S 15 20 8 11 1014.2 1014.1 0.4
27/05:00pm 19.3 17.3 13.9 71 3.1 SSE 17 22 9 12 1014.3 1014.2 0.4
27/04:30pm 19.0 18.9 16.0 83 1.8 SSW 11 13 6 7 1014.5 1014.4 0.4
27/04:00pm 18.8 19.2 16.4 86 1.4 S 9 11 5 6 1014.8 1014.7 0.4
27/03:30pm 18.8 19.2 16.4 86 1.4 SSW 9 15 5 8 1015.1 1015.0 0.4
27/03:00pm 19.1 18.7 16.1 83 1.8 S 13 17 7 9 1015.1 1015.0 0.4
27/02:30pm 18.9 18.4 15.9 83 1.8 S 13 17 7 9 1015.2 1015.1 0.4
27/02:00pm 18.7 18.1 15.6 82 1.8 SSE 13 17 7 9 1015.4 1015.3 0.4
27/01:30pm 18.8 17.9 14.9 78 2.3 SSE 13 19 7 10 1015.5 1015.4 0.4
27/01:00pm 19.5 19.6 16.5 83 1.8 S 11 19 6 10 1015.5 1015.4 0.4
27/12:30pm 18.8 18.6 17.5 92 0.8 SW 15 20 8 11 1015.7 1015.6 0.4
27/12:00pm 17.1 17.8 17.1 100 0.0 SW 9 15 5 8 1016.2 1016.1 0.4
27/11:30am 16.6 17.1 16.6 100 0.0 WSW 9 15 5 8 1016.4 1016.3 0.4

Other Formats:

Comma delimited format used in spreadsheet applications
http://www.bom.gov.au/fwo/IDN60801/IDN60801.95937.axf

JavaScript Object Notation format (JSON) in row-major order
http://www.bom.gov.au/fwo/IDN60801/IDN60801.95937.json